sensor_id;sensor_type;location;lat;lon;timestamp;P1;durP1;ratioP1;P2;durP2;ratioP2
47523;SDS011;33253;42.144;25.884;2023-05-24T00:02:04;9.82;;;7.60;;
47523;SDS011;33253;42.144;25.884;2023-05-24T00:04:30;13.40;;;7.40;;
47523;SDS011;33253;42.144;25.884;2023-05-24T00:06:56;14.38;;;7.57;;
47523;SDS011;33253;42.144;25.884;2023-05-24T00:09:22;11.25;;;6.38;;
47523;SDS011;33253;42.144;25.884;2023-05-24T00:11:47;9.02;;;5.80;;
47523;SDS011;33253;42.144;25.884;2023-05-24T00:14:13;11.80;;;6.03;;
47523;SDS011;33253;42.144;25.884;2023-05-24T00:16:38;10.52;;;6.13;;
47523;SDS011;33253;42.144;25.884;2023-05-24T00:19:04;8.68;;;5.70;;
47523;SDS011;33253;42.144;25.884;2023-05-24T00:21:30;8.90;;;6.25;;
47523;SDS011;33253;42.144;25.884;2023-05-24T00:23:56;9.23;;;6.32;;
47523;SDS011;33253;42.144;25.884;2023-05-24T00:26:21;11.48;;;6.13;;
47523;SDS011;33253;42.144;25.884;2023-05-24T00:28:47;9.75;;;5.90;;
47523;SDS011;33253;42.144;25.884;2023-05-24T00:31:12;10.30;;;5.70;;
47523;SDS011;33253;42.144;25.884;2023-05-24T00:33:38;9.25;;;5.68;;
47523;SDS011;33253;42.144;25.884;2023-05-24T00:36:03;11.63;;;5.75;;
47523;SDS011;33253;42.144;25.884;2023-05-24T00:38:29;12.70;;;6.25;;
47523;SDS011;33253;42.144;25.884;2023-05-24T00:40:55;10.65;;;6.22;;
47523;SDS011;33253;42.144;25.884;2023-05-24T00:43:21;10.77;;;6.35;;
47523;SDS011;33253;42.144;25.884;2023-05-24T00:45:47;11.00;;;7.13;;
47523;SDS011;33253;42.144;25.884;2023-05-24T00:48:12;10.82;;;7.38;;
47523;SDS011;33253;42.144;25.884;2023-05-24T00:50:39;14.02;;;7.68;;
47523;SDS011;33253;42.144;25.884;2023-05-24T00:53:06;14.85;;;7.47;;
47523;SDS011;33253;42.144;25.884;2023-05-24T00:55:32;10.60;;;7.15;;
47523;SDS011;33253;42.144;25.884;2023-05-24T00:58:00;12.40;;;7.13;;
47523;SDS011;33253;42.144;25.884;2023-05-24T01:00:26;13.32;;;7.65;;
47523;SDS011;33253;42.144;25.884;2023-05-24T01:02:53;12.77;;;7.32;;
47523;SDS011;33253;42.144;25.884;2023-05-24T01:05:19;10.95;;;8.43;;
47523;SDS011;33253;42.144;25.884;2023-05-24T01:16:15;8.10;;;5.50;;
47523;SDS011;33253;42.144;25.884;2023-05-24T01:18:47;11.73;;;6.38;;
47523;SDS011;33253;42.144;25.884;2023-05-24T01:27:05;9.80;;;6.45;;
47523;SDS011;33253;42.144;25.884;2023-05-24T01:29:32;27.73;;;8.27;;
47523;SDS011;33253;42.144;25.884;2023-05-24T01:31:59;22.02;;;8.45;;
47523;SDS011;33253;42.144;25.884;2023-05-24T01:34:26;13.32;;;8.32;;
47523;SDS011;33253;42.144;25.884;2023-05-24T01:36:51;13.88;;;7.95;;
47523;SDS011;33253;42.144;25.884;2023-05-24T01:39:17;11.35;;;7.68;;
47523;SDS011;33253;42.144;25.884;2023-05-24T01:44:46;10.30;;;6.55;;
47523;SDS011;33253;42.144;25.884;2023-05-24T01:49:56;6.65;;;4.75;;
47523;SDS011;33253;42.144;25.884;2023-05-24T01:52:28;6.45;;;5.00;;
47523;SDS011;33253;42.144;25.884;2023-05-24T01:54:57;15.30;;;6.22;;
47523;SDS011;33253;42.144;25.884;2023-05-24T01:57:25;7.20;;;4.82;;
47523;SDS011;33253;42.144;25.884;2023-05-24T01:59:51;13.18;;;6.32;;
47523;SDS011;33253;42.144;25.884;2023-05-24T02:02:18;17.73;;;7.35;;
47523;SDS011;33253;42.144;25.884;2023-05-24T02:04:44;24.63;;;7.75;;
47523;SDS011;33253;42.144;25.884;2023-05-24T02:07:10;37.85;;;8.95;;
47523;SDS011;33253;42.144;25.884;2023-05-24T02:09:35;25.73;;;9.05;;
47523;SDS011;33253;42.144;25.884;2023-05-24T02:12:01;31.20;;;9.32;;
47523;SDS011;33253;42.144;25.884;2023-05-24T02:14:26;40.40;;;8.38;;
47523;SDS011;33253;42.144;25.884;2023-05-24T02:16:52;36.15;;;9.48;;
47523;SDS011;33253;42.144;25.884;2023-05-24T02:22:44;15.63;;;8.80;;
47523;SDS011;33253;42.144;25.884;2023-05-24T02:25:09;17.05;;;8.32;;
47523;SDS011;33253;42.144;25.884;2023-05-24T02:27:35;20.48;;;8.20;;
47523;SDS011;33253;42.144;25.884;2023-05-24T02:30:00;24.25;;;8.38;;
47523;SDS011;33253;42.144;25.884;2023-05-24T02:32:26;21.65;;;8.45;;
47523;SDS011;33253;42.144;25.884;2023-05-24T02:34:51;21.33;;;8.80;;
47523;SDS011;33253;42.144;25.884;2023-05-24T02:37:17;18.90;;;9.52;;
47523;SDS011;33253;42.144;25.884;2023-05-24T02:39:42;11.40;;;6.97;;
47523;SDS011;33253;42.144;25.884;2023-05-24T02:42:08;22.10;;;8.00;;
47523;SDS011;33253;42.144;25.884;2023-05-24T02:44:35;19.50;;;8.57;;
47523;SDS011;33253;42.144;25.884;2023-05-24T02:47:00;19.27;;;8.20;;
47523;SDS011;33253;42.144;25.884;2023-05-24T02:49:26;19.00;;;8.50;;
47523;SDS011;33253;42.144;25.884;2023-05-24T02:51:51;16.10;;;8.57;;
47523;SDS011;33253;42.144;25.884;2023-05-24T02:54:17;12.35;;;8.35;;
47523;SDS011;33253;42.144;25.884;2023-05-24T02:56:42;13.20;;;7.90;;
47523;SDS011;33253;42.144;25.884;2023-05-24T02:59:08;17.30;;;8.63;;
47523;SDS011;33253;42.144;25.884;2023-05-24T03:01:33;11.27;;;8.45;;
47523;SDS011;33253;42.144;25.884;2023-05-24T03:03:59;13.23;;;8.80;;
47523;SDS011;33253;42.144;25.884;2023-05-24T03:06:25;13.55;;;9.05;;
47523;SDS011;33253;42.144;25.884;2023-05-24T03:08:50;16.98;;;8.57;;
47523;SDS011;33253;42.144;25.884;2023-05-24T03:11:16;16.88;;;8.52;;
47523;SDS011;33253;42.144;25.884;2023-05-24T03:13:45;12.35;;;9.45;;
47523;SDS011;33253;42.144;25.884;2023-05-24T03:16:11;19.67;;;10.02;;
47523;SDS011;33253;42.144;25.884;2023-05-24T03:18:36;13.52;;;9.50;;
47523;SDS011;33253;42.144;25.884;2023-05-24T03:21:02;14.30;;;8.55;;
47523;SDS011;33253;42.144;25.884;2023-05-24T03:23:27;16.65;;;9.27;;
47523;SDS011;33253;42.144;25.884;2023-05-24T03:25:53;11.73;;;8.57;;
47523;SDS011;33253;42.144;25.884;2023-05-24T03:28:18;13.20;;;8.90;;
47523;SDS011;33253;42.144;25.884;2023-05-24T03:30:46;13.80;;;8.10;;
47523;SDS011;33253;42.144;25.884;2023-05-24T03:33:12;21.70;;;8.10;;
47523;SDS011;33253;42.144;25.884;2023-05-24T03:35:37;14.82;;;8.55;;
47523;SDS011;33253;42.144;25.884;2023-05-24T03:38:02;11.80;;;9.45;;
47523;SDS011;33253;42.144;25.884;2023-05-24T03:40:28;13.73;;;8.45;;
47523;SDS011;33253;42.144;25.884;2023-05-24T03:42:56;14.32;;;8.13;;
47523;SDS011;33253;42.144;25.884;2023-05-24T03:45:22;8.68;;;7.78;;
47523;SDS011;33253;42.144;25.884;2023-05-24T03:47:47;10.73;;;8.77;;
47523;SDS011;33253;42.144;25.884;2023-05-24T03:50:13;8.45;;;7.55;;
47523;SDS011;33253;42.144;25.884;2023-05-24T03:52:38;10.88;;;7.68;;
47523;SDS011;33253;42.144;25.884;2023-05-24T03:55:04;8.00;;;7.20;;
47523;SDS011;33253;42.144;25.884;2023-05-24T03:57:30;8.48;;;7.57;;
47523;SDS011;33253;42.144;25.884;2023-05-24T03:59:56;8.65;;;7.50;;
47523;SDS011;33253;42.144;25.884;2023-05-24T04:02:21;9.65;;;8.45;;
47523;SDS011;33253;42.144;25.884;2023-05-24T04:04:47;11.10;;;8.23;;
47523;SDS011;33253;42.144;25.884;2023-05-24T04:07:12;8.13;;;7.18;;
47523;SDS011;33253;42.144;25.884;2023-05-24T04:09:39;8.18;;;7.35;;
47523;SDS011;33253;42.144;25.884;2023-05-24T04:12:04;8.48;;;7.47;;
47523;SDS011;33253;42.144;25.884;2023-05-24T04:14:30;10.15;;;8.18;;
47523;SDS011;33253;42.144;25.884;2023-05-24T04:16:55;10.55;;;8.07;;
47523;SDS011;33253;42.144;25.884;2023-05-24T04:19:21;10.10;;;8.32;;
47523;SDS011;33253;42.144;25.884;2023-05-24T04:21:47;9.88;;;7.60;;
47523;SDS011;33253;42.144;25.884;2023-05-24T04:24:13;9.30;;;8.30;;
47523;SDS011;33253;42.144;25.884;2023-05-24T04:26:38;10.63;;;8.07;;
47523;SDS011;33253;42.144;25.884;2023-05-24T04:29:04;8.52;;;7.57;;
47523;SDS011;33253;42.144;25.884;2023-05-24T04:31:29;10.82;;;8.48;;
47523;SDS011;33253;42.144;25.884;2023-05-24T04:33:57;14.45;;;9.13;;
47523;SDS011;33253;42.144;25.884;2023-05-24T04:36:23;11.25;;;8.82;;
47523;SDS011;33253;42.144;25.884;2023-05-24T04:38:49;10.10;;;7.93;;
47523;SDS011;33253;42.144;25.884;2023-05-24T04:41:17;9.98;;;8.32;;
47523;SDS011;33253;42.144;25.884;2023-05-24T04:43:43;12.65;;;8.65;;
47523;SDS011;33253;42.144;25.884;2023-05-24T04:46:09;10.85;;;9.27;;
47523;SDS011;33253;42.144;25.884;2023-05-24T04:48:34;13.18;;;9.10;;
47523;SDS011;33253;42.144;25.884;2023-05-24T04:51:00;13.60;;;8.90;;
47523;SDS011;33253;42.144;25.884;2023-05-24T04:53:26;12.85;;;10.20;;
47523;SDS011;33253;42.144;25.884;2023-05-24T04:55:51;13.55;;;9.20;;
47523;SDS011;33253;42.144;25.884;2023-05-24T04:58:17;12.30;;;9.82;;
47523;SDS011;33253;42.144;25.884;2023-05-24T05:00:43;12.90;;;9.63;;
47523;SDS011;33253;42.144;25.884;2023-05-24T05:03:09;11.38;;;9.45;;
47523;SDS011;33253;42.144;25.884;2023-05-24T05:05:35;12.45;;;9.57;;
47523;SDS011;33253;42.144;25.884;2023-05-24T05:08:01;14.82;;;10.57;;
47523;SDS011;33253;42.144;25.884;2023-05-24T05:10:26;10.93;;;8.77;;
47523;SDS011;33253;42.144;25.884;2023-05-24T05:12:52;12.15;;;8.82;;
47523;SDS011;33253;42.144;25.884;2023-05-24T05:15:19;12.07;;;9.45;;
47523;SDS011;33253;42.144;25.884;2023-05-24T05:17:46;10.93;;;9.80;;
47523;SDS011;33253;42.144;25.884;2023-05-24T05:20:11;10.52;;;8.98;;
47523;SDS011;33253;42.144;25.884;2023-05-24T05:22:37;11.55;;;9.48;;
47523;SDS011;33253;42.144;25.884;2023-05-24T05:25:02;12.32;;;9.15;;
47523;SDS011;33253;42.144;25.884;2023-05-24T05:27:28;12.38;;;9.75;;
47523;SDS011;33253;42.144;25.884;2023-05-24T05:29:54;11.23;;;9.40;;
47523;SDS011;33253;42.144;25.884;2023-05-24T05:32:19;12.13;;;9.98;;
47523;SDS011;33253;42.144;25.884;2023-05-24T05:34:44;10.18;;;9.07;;
47523;SDS011;33253;42.144;25.884;2023-05-24T05:37:10;10.80;;;9.65;;
47523;SDS011;33253;42.144;25.884;2023-05-24T05:39:36;12.38;;;9.98;;
47523;SDS011;33253;42.144;25.884;2023-05-24T05:42:01;10.55;;;9.45;;
47523;SDS011;33253;42.144;25.884;2023-05-24T05:44:26;12.13;;;9.73;;
47523;SDS011;33253;42.144;25.884;2023-05-24T05:46:52;11.75;;;10.23;;
47523;SDS011;33253;42.144;25.884;2023-05-24T05:49:17;11.90;;;10.38;;
47523;SDS011;33253;42.144;25.884;2023-05-24T05:51:43;13.38;;;10.60;;
47523;SDS011;33253;42.144;25.884;2023-05-24T05:54:09;12.55;;;9.73;;
47523;SDS011;33253;42.144;25.884;2023-05-24T05:56:39;11.68;;;9.57;;
47523;SDS011;33253;42.144;25.884;2023-05-24T05:59:09;11.68;;;10.48;;
47523;SDS011;33253;42.144;25.884;2023-05-24T06:01:35;12.30;;;10.88;;
47523;SDS011;33253;42.144;25.884;2023-05-24T06:04:01;13.85;;;11.25;;
47523;SDS011;33253;42.144;25.884;2023-05-24T06:06:26;13.40;;;12.00;;
47523;SDS011;33253;42.144;25.884;2023-05-24T06:08:52;16.45;;;12.55;;
47523;SDS011;33253;42.144;25.884;2023-05-24T06:11:17;14.40;;;11.55;;
47523;SDS011;33253;42.144;25.884;2023-05-24T06:13:42;18.05;;;13.23;;
47523;SDS011;33253;42.144;25.884;2023-05-24T06:16:08;14.05;;;11.88;;
47523;SDS011;33253;42.144;25.884;2023-05-24T06:18:33;16.55;;;12.48;;
47523;SDS011;33253;42.144;25.884;2023-05-24T06:21:00;12.60;;;11.30;;
47523;SDS011;33253;42.144;25.884;2023-05-24T06:23:26;14.55;;;11.75;;
47523;SDS011;33253;42.144;25.884;2023-05-24T06:25:51;15.15;;;11.52;;
47523;SDS011;33253;42.144;25.884;2023-05-24T06:28:16;13.13;;;11.73;;
47523;SDS011;33253;42.144;25.884;2023-05-24T06:30:42;16.85;;;12.18;;
47523;SDS011;33253;42.144;25.884;2023-05-24T06:33:07;14.70;;;11.13;;
47523;SDS011;33253;42.144;25.884;2023-05-24T06:35:33;15.10;;;11.32;;
47523;SDS011;33253;42.144;25.884;2023-05-24T06:37:58;12.57;;;10.45;;
47523;SDS011;33253;42.144;25.884;2023-05-24T06:40:24;13.00;;;11.10;;
47523;SDS011;33253;42.144;25.884;2023-05-24T06:42:49;15.02;;;11.30;;
47523;SDS011;33253;42.144;25.884;2023-05-24T06:45:14;13.25;;;11.05;;
47523;SDS011;33253;42.144;25.884;2023-05-24T06:48:01;14.25;;;10.70;;
47523;SDS011;33253;42.144;25.884;2023-05-24T06:50:26;12.40;;;10.38;;
47523;SDS011;33253;42.144;25.884;2023-05-24T06:52:52;13.07;;;11.75;;
47523;SDS011;33253;42.144;25.884;2023-05-24T06:55:18;14.32;;;11.50;;
47523;SDS011;33253;42.144;25.884;2023-05-24T06:57:43;13.40;;;11.70;;
47523;SDS011;33253;42.144;25.884;2023-05-24T07:00:09;14.93;;;10.63;;
47523;SDS011;33253;42.144;25.884;2023-05-24T07:02:39;14.80;;;11.30;;
47523;SDS011;33253;42.144;25.884;2023-05-24T07:05:05;13.80;;;11.45;;
47523;SDS011;33253;42.144;25.884;2023-05-24T07:07:36;14.80;;;11.75;;
47523;SDS011;33253;42.144;25.884;2023-05-24T07:10:03;11.32;;;9.85;;
47523;SDS011;33253;42.144;25.884;2023-05-24T07:12:30;12.95;;;11.02;;
47523;SDS011;33253;42.144;25.884;2023-05-24T07:14:56;11.77;;;9.95;;
47523;SDS011;33253;42.144;25.884;2023-05-24T07:17:21;12.65;;;10.98;;
47523;SDS011;33253;42.144;25.884;2023-05-24T07:19:47;13.68;;;10.45;;
47523;SDS011;33253;42.144;25.884;2023-05-24T07:22:12;12.30;;;10.35;;
47523;SDS011;33253;42.144;25.884;2023-05-24T07:24:38;11.95;;;10.75;;
47523;SDS011;33253;42.144;25.884;2023-05-24T07:27:03;14.23;;;11.48;;
47523;SDS011;33253;42.144;25.884;2023-05-24T07:29:29;14.35;;;10.50;;
47523;SDS011;33253;42.144;25.884;2023-05-24T07:31:56;13.23;;;11.02;;
47523;SDS011;33253;42.144;25.884;2023-05-24T07:34:22;10.27;;;9.18;;
47523;SDS011;33253;42.144;25.884;2023-05-24T07:36:51;14.52;;;9.95;;
47523;SDS011;33253;42.144;25.884;2023-05-24T07:39:17;12.57;;;9.65;;
47523;SDS011;33253;42.144;25.884;2023-05-24T07:41:43;13.68;;;10.02;;
47523;SDS011;33253;42.144;25.884;2023-05-24T07:44:08;11.45;;;10.27;;
47523;SDS011;33253;42.144;25.884;2023-05-24T07:46:34;10.00;;;8.85;;
47523;SDS011;33253;42.144;25.884;2023-05-24T07:48:59;10.45;;;8.32;;
47523;SDS011;33253;42.144;25.884;2023-05-24T07:51:25;10.63;;;8.15;;
47523;SDS011;33253;42.144;25.884;2023-05-24T07:53:50;11.68;;;8.20;;
47523;SDS011;33253;42.144;25.884;2023-05-24T07:56:16;11.15;;;7.70;;
47523;SDS011;33253;42.144;25.884;2023-05-24T07:58:42;11.57;;;7.15;;
47523;SDS011;33253;42.144;25.884;2023-05-24T08:01:10;11.15;;;7.15;;
47523;SDS011;33253;42.144;25.884;2023-05-24T08:03:38;11.23;;;7.60;;
47523;SDS011;33253;42.144;25.884;2023-05-24T08:06:03;8.65;;;6.28;;
47523;SDS011;33253;42.144;25.884;2023-05-24T08:08:29;7.82;;;6.43;;
47523;SDS011;33253;42.144;25.884;2023-05-24T08:10:55;7.28;;;5.60;;
47523;SDS011;33253;42.144;25.884;2023-05-24T08:13:20;7.82;;;5.25;;
47523;SDS011;33253;42.144;25.884;2023-05-24T08:15:46;7.05;;;5.65;;
47523;SDS011;33253;42.144;25.884;2023-05-24T08:18:11;14.48;;;5.93;;
47523;SDS011;33253;42.144;25.884;2023-05-24T08:20:37;6.50;;;4.70;;
47523;SDS011;33253;42.144;25.884;2023-05-24T08:23:02;7.20;;;4.50;;
47523;SDS011;33253;42.144;25.884;2023-05-24T08:25:28;7.35;;;4.63;;
47523;SDS011;33253;42.144;25.884;2023-05-24T08:27:53;10.18;;;4.65;;
47523;SDS011;33253;42.144;25.884;2023-05-24T08:30:21;8.57;;;5.30;;
47523;SDS011;33253;42.144;25.884;2023-05-24T08:32:47;6.07;;;4.55;;
47523;SDS011;33253;42.144;25.884;2023-05-24T08:35:13;7.30;;;4.70;;
47523;SDS011;33253;42.144;25.884;2023-05-24T08:37:38;9.05;;;4.43;;
47523;SDS011;33253;42.144;25.884;2023-05-24T08:40:04;7.65;;;4.38;;
47523;SDS011;33253;42.144;25.884;2023-05-24T08:42:29;6.60;;;4.35;;
47523;SDS011;33253;42.144;25.884;2023-05-24T08:45:02;6.70;;;3.80;;
47523;SDS011;33253;42.144;25.884;2023-05-24T08:47:38;6.82;;;3.97;;
47523;SDS011;33253;42.144;25.884;2023-05-24T08:50:05;7.20;;;3.83;;
47523;SDS011;33253;42.144;25.884;2023-05-24T08:52:32;7.13;;;4.05;;
47523;SDS011;33253;42.144;25.884;2023-05-24T08:54:58;7.07;;;4.70;;
47523;SDS011;33253;42.144;25.884;2023-05-24T08:57:27;7.40;;;4.47;;
47523;SDS011;33253;42.144;25.884;2023-05-24T08:59:54;5.40;;;4.20;;
47523;SDS011;33253;42.144;25.884;2023-05-24T09:02:20;8.48;;;4.10;;
47523;SDS011;33253;42.144;25.884;2023-05-24T09:04:51;5.70;;;4.18;;
47523;SDS011;33253;42.144;25.884;2023-05-24T09:07:18;6.35;;;4.30;;
47523;SDS011;33253;42.144;25.884;2023-05-24T09:09:49;6.10;;;3.90;;
47523;SDS011;33253;42.144;25.884;2023-05-24T09:12:22;8.77;;;4.93;;
47523;SDS011;33253;42.144;25.884;2023-05-24T09:14:48;6.63;;;3.83;;
47523;SDS011;33253;42.144;25.884;2023-05-24T09:17:14;8.90;;;4.30;;
47523;SDS011;33253;42.144;25.884;2023-05-24T09:19:46;9.60;;;4.25;;
47523;SDS011;33253;42.144;25.884;2023-05-24T09:22:16;5.32;;;4.40;;
47523;SDS011;33253;42.144;25.884;2023-05-24T09:24:47;5.03;;;3.78;;
47523;SDS011;33253;42.144;25.884;2023-05-24T09:27:14;5.90;;;3.80;;
47523;SDS011;33253;42.144;25.884;2023-05-24T09:29:41;12.10;;;4.70;;
47523;SDS011;33253;42.144;25.884;2023-05-24T09:32:07;6.00;;;4.35;;
47523;SDS011;33253;42.144;25.884;2023-05-24T09:34:42;7.03;;;3.53;;
47523;SDS011;33253;42.144;25.884;2023-05-24T09:37:29;5.70;;;4.05;;
47523;SDS011;33253;42.144;25.884;2023-05-24T09:39:54;6.65;;;3.50;;
47523;SDS011;33253;42.144;25.884;2023-05-24T09:42:20;6.55;;;3.78;;
47523;SDS011;33253;42.144;25.884;2023-05-24T09:45:00;8.27;;;4.35;;
47523;SDS011;33253;42.144;25.884;2023-05-24T09:47:32;6.95;;;4.10;;
47523;SDS011;33253;42.144;25.884;2023-05-24T09:49:59;6.05;;;4.18;;
47523;SDS011;33253;42.144;25.884;2023-05-24T09:52:25;7.75;;;4.43;;
47523;SDS011;33253;42.144;25.884;2023-05-24T09:54:51;6.03;;;4.20;;
47523;SDS011;33253;42.144;25.884;2023-05-24T09:57:17;6.05;;;4.22;;
47523;SDS011;33253;42.144;25.884;2023-05-24T09:59:43;4.78;;;3.60;;
47523;SDS011;33253;42.144;25.884;2023-05-24T10:02:09;7.55;;;4.47;;
47523;SDS011;33253;42.144;25.884;2023-05-24T10:04:36;6.00;;;4.00;;
47523;SDS011;33253;42.144;25.884;2023-05-24T10:07:05;6.97;;;4.18;;
47523;SDS011;33253;42.144;25.884;2023-05-24T10:09:31;5.90;;;3.75;;
47523;SDS011;33253;42.144;25.884;2023-05-24T10:12:02;7.18;;;4.13;;
47523;SDS011;33253;42.144;25.884;2023-05-24T10:14:35;6.40;;;4.47;;
47523;SDS011;33253;42.144;25.884;2023-05-24T10:17:02;6.47;;;4.15;;
47523;SDS011;33253;42.144;25.884;2023-05-24T10:19:35;6.68;;;4.10;;
47523;SDS011;33253;42.144;25.884;2023-05-24T10:22:05;5.78;;;4.18;;
47523;SDS011;33253;42.144;25.884;2023-05-24T10:24:32;7.47;;;4.22;;
47523;SDS011;33253;42.144;25.884;2023-05-24T10:27:03;6.78;;;4.50;;
47523;SDS011;33253;42.144;25.884;2023-05-24T10:29:53;5.97;;;3.45;;
47523;SDS011;33253;42.144;25.884;2023-05-24T10:32:30;4.65;;;3.75;;
47523;SDS011;33253;42.144;25.884;2023-05-24T10:34:59;6.72;;;3.90;;
47523;SDS011;33253;42.144;25.884;2023-05-24T10:37:27;9.70;;;4.45;;
47523;SDS011;33253;42.144;25.884;2023-05-24T10:39:52;7.75;;;4.47;;
47523;SDS011;33253;42.144;25.884;2023-05-24T10:42:18;8.70;;;4.65;;
47523;SDS011;33253;42.144;25.884;2023-05-24T10:44:43;7.45;;;4.20;;
47523;SDS011;33253;42.144;25.884;2023-05-24T10:47:10;6.57;;;4.10;;
47523;SDS011;33253;42.144;25.884;2023-05-24T10:49:37;8.70;;;4.53;;
47523;SDS011;33253;42.144;25.884;2023-05-24T10:52:11;7.07;;;4.72;;
47523;SDS011;33253;42.144;25.884;2023-05-24T10:54:37;5.72;;;4.28;;
47523;SDS011;33253;42.144;25.884;2023-05-24T10:57:03;7.50;;;3.97;;
47523;SDS011;33253;42.144;25.884;2023-05-24T10:59:31;8.77;;;4.20;;
47523;SDS011;33253;42.144;25.884;2023-05-24T11:02:04;7.93;;;4.05;;
47523;SDS011;33253;42.144;25.884;2023-05-24T11:04:37;8.57;;;4.13;;
47523;SDS011;33253;42.144;25.884;2023-05-24T11:07:05;6.05;;;4.15;;
47523;SDS011;33253;42.144;25.884;2023-05-24T11:12:03;8.32;;;5.00;;
47523;SDS011;33253;42.144;25.884;2023-05-24T11:14:33;7.10;;;4.13;;
47523;SDS011;33253;42.144;25.884;2023-05-24T11:17:00;5.95;;;3.80;;
47523;SDS011;33253;42.144;25.884;2023-05-24T11:19:30;6.47;;;4.10;;
47523;SDS011;33253;42.144;25.884;2023-05-24T11:22:07;7.07;;;4.18;;
47523;SDS011;33253;42.144;25.884;2023-05-24T11:24:33;7.55;;;4.10;;
47523;SDS011;33253;42.144;25.884;2023-05-24T11:26:59;6.18;;;3.75;;
47523;SDS011;33253;42.144;25.884;2023-05-24T11:29:26;9.38;;;4.03;;
47523;SDS011;33253;42.144;25.884;2023-05-24T11:31:54;5.38;;;3.45;;
47523;SDS011;33253;42.144;25.884;2023-05-24T11:34:28;6.60;;;3.80;;
47523;SDS011;33253;42.144;25.884;2023-05-24T11:36:54;4.55;;;3.80;;
47523;SDS011;33253;42.144;25.884;2023-05-24T11:39:20;6.57;;;3.90;;
47523;SDS011;33253;42.144;25.884;2023-05-24T11:41:47;8.82;;;4.10;;
47523;SDS011;33253;42.144;25.884;2023-05-24T11:44:15;25.38;;;5.78;;
47523;SDS011;33253;42.144;25.884;2023-05-24T11:46:43;5.05;;;3.70;;
47523;SDS011;33253;42.144;25.884;2023-05-24T11:49:12;22.60;;;5.60;;
47523;SDS011;33253;42.144;25.884;2023-05-24T11:51:39;6.38;;;3.80;;
47523;SDS011;33253;42.144;25.884;2023-05-24T11:54:05;136.63;;;22.10;;
47523;SDS011;33253;42.144;25.884;2023-05-24T11:56:31;15.48;;;4.80;;
47523;SDS011;33253;42.144;25.884;2023-05-24T12:01:46;8.15;;;4.40;;
47523;SDS011;33253;42.144;25.884;2023-05-24T12:04:12;26.92;;;4.90;;
47523;SDS011;33253;42.144;25.884;2023-05-24T12:06:41;13.68;;;3.72;;
47523;SDS011;33253;42.144;25.884;2023-05-24T12:09:09;16.98;;;4.45;;
47523;SDS011;33253;42.144;25.884;2023-05-24T12:11:38;19.33;;;3.97;;
47523;SDS011;33253;42.144;25.884;2023-05-24T12:14:06;17.67;;;3.33;;
47523;SDS011;33253;42.144;25.884;2023-05-24T12:16:36;5.72;;;2.10;;
47523;SDS011;33253;42.144;25.884;2023-05-24T12:19:02;6.28;;;2.30;;
47523;SDS011;33253;42.144;25.884;2023-05-24T12:21:31;7.93;;;2.40;;
47523;SDS011;33253;42.144;25.884;2023-05-24T12:24:07;10.15;;;2.67;;
47523;SDS011;33253;42.144;25.884;2023-05-24T12:26:40;4.82;;;2.53;;
47523;SDS011;33253;42.144;25.884;2023-05-24T12:29:10;8.60;;;4.10;;
47523;SDS011;33253;42.144;25.884;2023-05-24T12:31:40;6.97;;;2.95;;
47523;SDS011;33253;42.144;25.884;2023-05-24T12:34:12;6.10;;;2.90;;
47523;SDS011;33253;42.144;25.884;2023-05-24T12:36:39;13.38;;;3.10;;
47523;SDS011;33253;42.144;25.884;2023-05-24T12:39:20;7.40;;;3.25;;
47523;SDS011;33253;42.144;25.884;2023-05-24T12:41:51;7.55;;;2.80;;
47523;SDS011;33253;42.144;25.884;2023-05-24T12:44:26;5.53;;;3.00;;
47523;SDS011;33253;42.144;25.884;2023-05-24T12:46:53;6.18;;;2.88;;
47523;SDS011;33253;42.144;25.884;2023-05-24T12:49:21;5.18;;;2.95;;
47523;SDS011;33253;42.144;25.884;2023-05-24T12:51:48;6.07;;;2.78;;
47523;SDS011;33253;42.144;25.884;2023-05-24T12:54:14;5.10;;;2.55;;
47523;SDS011;33253;42.144;25.884;2023-05-24T12:56:39;5.53;;;2.40;;
47523;SDS011;33253;42.144;25.884;2023-05-24T12:59:05;2.85;;;1.70;;
47523;SDS011;33253;42.144;25.884;2023-05-24T13:01:31;7.18;;;2.10;;
47523;SDS011;33253;42.144;25.884;2023-05-24T13:03:56;5.85;;;1.95;;
47523;SDS011;33253;42.144;25.884;2023-05-24T13:06:23;14.25;;;2.47;;
47523;SDS011;33253;42.144;25.884;2023-05-24T13:08:49;6.05;;;2.70;;
47523;SDS011;33253;42.144;25.884;2023-05-24T13:11:15;5.40;;;2.22;;
47523;SDS011;33253;42.144;25.884;2023-05-24T13:13:40;5.70;;;2.55;;
47523;SDS011;33253;42.144;25.884;2023-05-24T13:16:06;4.75;;;1.90;;
47523;SDS011;33253;42.144;25.884;2023-05-24T13:18:33;6.45;;;2.05;;
47523;SDS011;33253;42.144;25.884;2023-05-24T13:20:58;3.67;;;2.33;;
47523;SDS011;33253;42.144;25.884;2023-05-24T13:23:24;3.97;;;2.15;;
47523;SDS011;33253;42.144;25.884;2023-05-24T13:25:54;9.35;;;2.70;;
47523;SDS011;33253;42.144;25.884;2023-05-24T13:28:21;5.15;;;2.53;;
47523;SDS011;33253;42.144;25.884;2023-05-24T13:30:46;6.20;;;2.75;;
47523;SDS011;33253;42.144;25.884;2023-05-24T13:33:13;5.28;;;3.00;;
47523;SDS011;33253;42.144;25.884;2023-05-24T13:35:39;5.85;;;2.90;;
47523;SDS011;33253;42.144;25.884;2023-05-24T13:38:05;4.45;;;2.88;;
47523;SDS011;33253;42.144;25.884;2023-05-24T13:40:31;5.97;;;2.78;;
47523;SDS011;33253;42.144;25.884;2023-05-24T13:42:57;19.25;;;3.53;;
47523;SDS011;33253;42.144;25.884;2023-05-24T13:45:23;9.32;;;3.00;;
47523;SDS011;33253;42.144;25.884;2023-05-24T13:47:49;6.82;;;2.92;;
47523;SDS011;33253;42.144;25.884;2023-05-24T13:50:15;5.40;;;2.75;;
47523;SDS011;33253;42.144;25.884;2023-05-24T13:52:41;4.05;;;2.60;;
47523;SDS011;33253;42.144;25.884;2023-05-24T13:55:07;5.65;;;2.50;;
47523;SDS011;33253;42.144;25.884;2023-05-24T13:57:33;5.57;;;3.08;;
47523;SDS011;33253;42.144;25.884;2023-05-24T13:59:58;8.05;;;3.20;;
47523;SDS011;33253;42.144;25.884;2023-05-24T14:02:24;4.97;;;2.70;;
47523;SDS011;33253;42.144;25.884;2023-05-24T14:04:50;4.35;;;3.00;;
47523;SDS011;33253;42.144;25.884;2023-05-24T14:07:17;8.30;;;3.05;;
47523;SDS011;33253;42.144;25.884;2023-05-24T14:09:43;5.50;;;2.92;;
47523;SDS011;33253;42.144;25.884;2023-05-24T14:12:08;3.80;;;3.05;;
47523;SDS011;33253;42.144;25.884;2023-05-24T14:14:34;6.88;;;3.10;;
47523;SDS011;33253;42.144;25.884;2023-05-24T14:17:00;8.32;;;3.00;;
47523;SDS011;33253;42.144;25.884;2023-05-24T14:19:25;5.30;;;3.42;;
47523;SDS011;33253;42.144;25.884;2023-05-24T14:21:51;4.85;;;3.08;;
47523;SDS011;33253;42.144;25.884;2023-05-24T14:24:16;71.70;;;13.48;;
47523;SDS011;33253;42.144;25.884;2023-05-24T14:26:42;1345.03;;;236.27;;
47523;SDS011;33253;42.144;25.884;2023-05-24T14:29:07;787.47;;;117.38;;
47523;SDS011;33253;42.144;25.884;2023-05-24T14:31:33;1437.10;;;219.63;;
47523;SDS011;33253;42.144;25.884;2023-05-24T14:34:05;1406.05;;;229.88;;
47523;SDS011;33253;42.144;25.884;2023-05-24T14:36:31;369.15;;;47.47;;
47523;SDS011;33253;42.144;25.884;2023-05-24T14:38:57;558.10;;;66.72;;
47523;SDS011;33253;42.144;25.884;2023-05-24T14:41:23;849.83;;;146.30;;
47523;SDS011;33253;42.144;25.884;2023-05-24T14:43:48;99.78;;;14.57;;
47523;SDS011;33253;42.144;25.884;2023-05-24T14:46:14;53.33;;;9.75;;
47523;SDS011;33253;42.144;25.884;2023-05-24T14:48:39;363.88;;;48.28;;
47523;SDS011;33253;42.144;25.884;2023-05-24T14:51:05;54.97;;;9.50;;